createdAt,value
2019-06-07T03:50:33.528Z,19.22
2019-06-07T03:53:03.632Z,19.28
2019-06-07T03:55:38.554Z,19.32
2019-06-07T04:00:43.158Z,19.70
2019-06-07T04:03:32.745Z,19.86
2019-06-07T04:05:47.956Z,19.99
2019-06-07T04:08:19.301Z,20.13
2019-06-07T04:10:59.577Z,20.15
2019-06-07T04:13:23.352Z,20.46
2019-06-07T04:15:54.527Z,20.47
2019-06-07T04:18:28.590Z,20.66
2019-06-07T04:21:01.686Z,20.52
2019-06-07T04:23:37.988Z,20.42
2019-06-07T04:26:07.867Z,20.39
2019-06-07T04:29:31.077Z,20.46
2019-06-07T04:31:16.153Z,20.48
2019-06-07T04:33:51.051Z,20.65
2019-06-07T04:36:45.623Z,20.63
2019-06-07T04:42:35.029Z,20.63
2019-06-07T04:45:29.202Z,20.60
2019-06-07T04:47:45.271Z,20.56
2019-06-07T04:50:19.458Z,20.63
2019-06-07T04:52:53.655Z,20.68
2019-06-07T04:55:29.094Z,20.81
2019-06-07T04:58:04.807Z,20.91
2019-06-07T05:00:54.292Z,20.67
2019-06-07T05:03:18.516Z,20.94
2019-06-07T05:05:54.891Z,20.75
2019-06-07T05:08:31.540Z,20.79
2019-06-07T05:11:06.935Z,20.82
2019-06-07T05:13:43.809Z,20.95
2019-06-07T05:16:19.974Z,20.95
2019-06-07T05:18:54.361Z,20.81
2019-06-07T05:21:51.517Z,20.80
2019-06-07T05:24:10.102Z,20.76
2019-06-07T05:26:55.920Z,20.57
2019-06-07T05:29:30.787Z,20.45
2019-06-07T05:32:09.215Z,20.60
2019-06-07T06:07:56.949Z,22.45
2019-06-07T06:10:30.359Z,22.42
2019-06-07T06:13:05.085Z,22.37
2019-06-07T06:15:50.817Z,22.09
2019-06-07T06:18:15.351Z,21.66
2019-06-07T06:21:12.774Z,21.23
2019-06-07T06:23:25.919Z,20.70
2019-06-07T06:26:03.469Z,20.40
2019-06-07T06:28:45.388Z,20.06
2019-06-07T06:31:23.240Z,20.01
2019-06-07T06:33:57.529Z,19.98
2019-06-07T06:36:32.497Z,19.99
2019-06-07T06:39:10.872Z,19.94
2019-06-07T06:41:56.825Z,19.93
2019-06-07T06:44:22.524Z,20.14
2019-06-07T06:46:58.288Z,20.08
2019-06-07T06:49:32.536Z,20.10
2019-06-07T06:52:08.027Z,19.96
2019-06-07T06:54:54.256Z,20.05
2019-06-07T06:57:21.873Z,19.91
2019-06-07T06:59:55.867Z,19.86
2019-06-07T07:02:31.572Z,19.73
2019-06-07T07:05:08.943Z,19.85
2019-06-07T07:07:45.448Z,19.83
2019-06-07T07:10:24.994Z,19.70
2019-06-07T07:13:00.366Z,19.62
2019-06-07T07:15:33.401Z,19.81
2019-06-07T07:21:26.283Z,19.99
2019-06-07T07:24:20.266Z,20.58
2019-06-07T07:26:53.931Z,20.63
2019-06-07T07:29:26.752Z,20.25
2019-06-07T07:32:01.686Z,20.22
2019-06-07T07:34:38.253Z,20.06
2019-06-07T07:37:33.278Z,19.83
2019-06-07T07:40:54.745Z,19.89
2019-06-07T07:42:45.195Z,19.64
2019-06-07T07:45:20.391Z,19.95
2019-06-07T07:48:08.792Z,20.22
2019-06-07T07:50:29.747Z,20.43
2019-06-07T07:53:03.475Z,20.66
2019-06-07T07:55:38.009Z,21.12
2019-06-07T07:58:15.631Z,21.41
2019-06-07T08:01:00.145Z,21.21
2019-06-07T08:03:26.931Z,21.56
2019-06-07T08:06:00.406Z,22.09
2019-06-07T08:08:33.614Z,22.43
2019-06-07T08:11:07.657Z,22.90
2019-06-07T08:13:43.993Z,22.71
2019-06-07T08:16:29.647Z,22.93
2019-06-07T08:19:04.559Z,23.11
2019-06-07T08:21:38.894Z,24.03
2019-06-07T08:24:14.410Z,24.74
2019-06-07T08:27:13.013Z,25.03
2019-06-07T08:29:26.076Z,25.48
2019-06-07T08:32:00.935Z,24.71
2019-06-07T08:34:35.645Z,25.00
2019-06-07T08:37:10.042Z,25.36
2019-06-07T08:39:43.696Z,25.60
2019-06-07T08:42:22.044Z,25.51
2019-06-07T08:44:54.296Z,26.00
2019-06-07T08:47:29.181Z,25.74
2019-06-07T08:50:07.766Z,25.62
2019-06-07T08:52:39.219Z,25.54
2019-06-07T08:55:15.388Z,25.66
2019-06-07T08:57:49.077Z,25.03
2019-06-07T09:03:06.471Z,25.51
2019-06-07T09:05:37.793Z,25.85
2019-06-07T09:08:29.207Z,25.37
2019-06-07T09:10:48.662Z,25.67
2019-06-07T09:13:22.330Z,26.05
2019-06-07T09:16:04.378Z,25.79
2019-06-07T09:18:43.033Z,25.39
2019-06-07T09:21:09.949Z,26.04
2019-06-07T09:23:44.212Z,25.75
2019-06-07T09:26:19.157Z,25.85
2019-06-07T09:28:57.640Z,26.62
2019-06-07T09:31:51.137Z,26.68
2019-06-07T09:34:13.782Z,27.35
2019-06-07T09:36:42.747Z,26.89
2019-06-07T09:39:14.928Z,26.23
2019-06-07T09:41:49.887Z,26.70
2019-06-07T09:44:25.695Z,27.17
2019-06-07T09:47:14.221Z,27.54
2019-06-07T09:49:32.627Z,27.62
2019-06-07T09:52:06.827Z,27.36
2019-06-07T09:57:16.409Z,27.23
2019-06-07T09:59:40.216Z,26.38
2019-06-07T10:02:13.790Z,26.16
2019-06-07T10:04:44.575Z,25.60
2019-06-07T10:07:30.729Z,26.51
2019-06-07T10:12:21.522Z,27.59
2019-06-07T10:14:54.419Z,27.67
2019-06-07T10:17:28.590Z,27.50
2019-06-07T10:20:03.914Z,27.27
2019-06-07T10:22:36.445Z,28.06
2019-06-07T10:25:10.618Z,28.81
2019-06-07T10:27:41.970Z,28.79
2019-06-07T10:30:13.335Z,28.24
2019-06-07T10:32:45.315Z,28.78
2019-06-07T10:35:17.236Z,28.62
2019-06-07T10:37:48.547Z,28.73
2019-06-07T10:40:20.525Z,29.23
2019-06-07T10:42:52.726Z,29.29
2019-06-07T10:45:24.955Z,29.48
2019-06-07T10:47:57.324Z,28.78
2019-06-07T10:50:28.616Z,28.35
2019-06-07T10:52:59.925Z,28.52
2019-06-07T10:55:31.288Z,28.76
2019-06-07T10:58:03.310Z,28.43
2019-06-07T11:00:34.820Z,29.12
2019-06-07T11:03:07.857Z,29.58
2019-06-07T11:05:39.865Z,29.30
2019-06-07T11:08:14.563Z,29.34
2019-06-07T11:10:47.867Z,29.73
2019-06-07T11:13:19.134Z,29.67
2019-06-07T11:17:13.286Z,31.43
2019-06-07T11:19:44.945Z,30.39
2019-06-07T11:22:16.446Z,30.36
2019-06-07T11:24:47.978Z,30.87
2019-06-07T11:27:19.858Z,31.28
2019-06-07T11:29:53.564Z,31.83
2019-06-07T11:32:25.602Z,31.55
2019-06-07T11:34:56.776Z,31.25
2019-06-07T11:37:27.927Z,30.87
2019-06-07T11:39:59.059Z,31.65
2019-06-07T11:42:30.344Z,31.94
2019-06-07T11:45:01.589Z,33.12
2019-06-07T11:47:32.826Z,32.96
2019-06-07T11:50:07.254Z,32.97
2019-06-07T11:52:39.332Z,32.03
2019-06-07T11:55:11.547Z,32.11
2019-06-07T11:57:43.224Z,31.76
2019-06-07T12:00:18.389Z,31.11
2019-06-07T12:02:49.971Z,30.52
2019-06-07T12:05:21.251Z,30.34
2019-06-07T12:07:52.401Z,30.17
2019-06-07T12:10:25.151Z,30.21
2019-06-07T12:12:56.450Z,29.88
2019-06-07T12:15:27.845Z,29.99
2019-06-07T12:17:59.313Z,29.92
2019-06-07T12:20:30.921Z,29.32
2019-06-07T12:23:02.204Z,29.64
2019-06-07T12:25:33.393Z,29.77
2019-06-07T12:28:04.786Z,29.82
2019-06-07T12:30:35.935Z,29.60
2019-06-07T12:33:07.118Z,30.00
2019-06-07T12:35:38.320Z,30.01
2019-06-07T12:38:09.497Z,30.74
2019-06-07T12:40:40.691Z,30.59
2019-06-07T12:43:12.481Z,30.29
2019-06-07T12:45:45.543Z,30.15
2019-06-07T12:48:20.779Z,30.31
2019-06-07T12:50:49.561Z,29.96
2019-06-07T12:53:25.838Z,30.05
2019-06-07T12:55:53.762Z,30.04
2019-06-07T12:58:32.608Z,29.77
2019-06-07T13:00:59.816Z,29.73
2019-06-07T13:03:31.036Z,30.55
2019-06-07T13:06:02.269Z,30.94
2019-06-07T13:08:34.438Z,30.09
2019-06-07T13:11:15.896Z,29.65
2019-06-07T13:13:38.740Z,29.23
2019-06-07T13:16:11.041Z,29.46
2019-06-07T13:18:42.717Z,29.49
2019-06-07T13:21:14.001Z,29.43
2019-06-07T13:23:45.213Z,28.69
2019-06-07T13:26:17.348Z,28.64
2019-06-07T13:28:49.790Z,28.74
2019-06-07T13:31:21.184Z,29.75
2019-06-07T13:33:52.489Z,30.09
2019-06-07T13:36:24.716Z,30.41
2019-06-07T13:38:55.975Z,31.04
2019-06-07T13:41:40.453Z,31.71
2019-06-07T13:44:02.234Z,31.93
2019-06-07T13:46:33.840Z,31.69
2019-06-07T13:49:05.993Z,32.19
2019-06-07T13:51:37.228Z,32.86
2019-06-07T13:54:08.483Z,32.86
2019-06-07T13:57:00.906Z,31.81
2019-06-07T13:59:13.324Z,31.70
2019-06-07T14:01:45.080Z,31.16
2019-06-07T14:04:16.276Z,31.46
2019-06-07T14:06:49.079Z,31.17
2019-06-07T14:09:21.146Z,31.37
2019-06-07T14:11:52.753Z,31.01
2019-06-07T14:14:24.736Z,31.01
2019-06-07T14:16:56.930Z,30.24
2019-06-07T14:19:28.764Z,30.24
2019-06-07T14:22:00.369Z,30.56
2019-06-07T14:24:31.663Z,30.18
2019-06-07T14:27:08.794Z,31.07
2019-06-07T14:29:40.490Z,32.11
2019-06-07T14:32:11.689Z,33.02
2019-06-07T14:34:42.850Z,33.88
2019-06-07T14:37:14.180Z,32.86
2019-06-07T14:39:45.496Z,33.89
2019-06-07T14:42:18.362Z,33.79
2019-06-07T14:44:49.777Z,34.86
2019-06-07T14:47:21.045Z,34.01
2019-06-07T14:49:52.207Z,34.55
2019-06-07T14:52:24.858Z,35.81
2019-06-07T14:54:59.267Z,37.48
2019-06-07T14:57:34.220Z,37.63
2019-06-07T15:00:14.087Z,37.38
2019-06-07T15:02:46.717Z,37.45
2019-06-07T15:05:20.830Z,37.51
2019-06-07T15:07:52.183Z,38.90
2019-06-07T15:10:24.401Z,37.77
2019-06-07T15:12:56.818Z,38.07
2019-06-07T15:15:28.895Z,37.57
2019-06-07T15:18:01.537Z,38.53
2019-06-07T15:20:34.087Z,39.18
2019-06-07T15:23:07.582Z,40.03
2019-06-07T15:25:41.141Z,39.66
2019-06-07T15:28:13.740Z,40.97
2019-06-07T15:30:45.231Z,40.81
2019-06-07T15:33:18.622Z,41.62
2019-06-07T15:35:51.241Z,41.54
2019-06-07T15:38:23.939Z,40.86
2019-06-07T15:40:57.827Z,39.83
2019-06-07T15:43:31.058Z,38.12
2019-06-07T15:46:02.395Z,37.60
2019-06-07T15:48:36.073Z,38.08
2019-06-07T15:51:08.197Z,40.04
2019-06-07T15:53:44.453Z,39.76
2019-06-07T15:56:14.627Z,40.20
2019-06-07T15:58:48.186Z,40.36
2019-06-07T16:01:21.143Z,38.28
2019-06-07T16:03:53.872Z,37.53
2019-06-07T16:06:32.160Z,35.20
2019-06-07T16:09:06.889Z,34.96
2019-06-07T17:43:59.963Z,40.51
2019-06-07T17:46:25.735Z,39.57
2019-06-07T17:48:57.268Z,39.67
2019-06-07T17:51:30.300Z,39.40
2019-06-07T17:54:02.149Z,39.73
2019-06-07T17:56:33.687Z,39.73
2019-06-07T17:59:05.636Z,38.73
2019-06-07T18:01:41.465Z,38.64
2019-06-07T18:04:09.908Z,38.34
2019-06-07T18:06:41.643Z,38.04
2019-06-07T18:09:14.153Z,37.60
2019-06-07T18:11:45.851Z,36.81
2019-06-07T18:14:17.317Z,34.89
2019-06-07T18:16:48.645Z,34.92
2019-06-07T18:19:20.332Z,34.63
2019-06-07T18:21:57.367Z,34.31
2019-06-07T18:24:34.804Z,33.85
2019-06-07T18:27:09.271Z,32.37
2019-06-07T18:29:41.819Z,30.37
2019-06-07T18:32:13.740Z,29.19
2019-06-07T18:34:46.701Z,28.32
2019-06-07T18:37:19.293Z,27.71
2019-06-07T18:39:51.673Z,27.28
2019-06-07T18:42:23.531Z,26.87
